createdAt,value
2018-10-03T00:01:44.862Z,74.75
2018-10-03T00:04:14.198Z,75.51
2018-10-03T00:06:43.693Z,75.00
2018-10-03T00:09:13.001Z,74.57
2018-10-03T00:11:42.405Z,73.96
2018-10-03T00:14:11.808Z,74.15
2018-10-03T00:16:41.415Z,74.09
2018-10-03T00:19:10.918Z,73.97
2018-10-03T00:21:40.387Z,74.81
2018-10-03T00:24:09.750Z,74.77
2018-10-03T00:26:39.123Z,74.77
2018-10-03T00:29:08.627Z,75.68
2018-10-03T00:31:38.027Z,74.68
2018-10-03T00:34:07.429Z,74.28
2018-10-03T00:36:36.836Z,75.28
2018-10-03T00:39:08.402Z,74.51
2018-10-03T00:41:38.196Z,75.02
2018-10-03T00:44:08.006Z,74.90
2018-10-03T00:46:37.512Z,74.71
2018-10-03T00:49:07.731Z,73.82
2018-10-03T00:51:37.421Z,74.80
2018-10-03T00:54:06.991Z,74.70
2018-10-03T00:56:36.449Z,74.43
2018-10-03T00:59:06.057Z,74.47
2018-10-03T01:01:35.355Z,74.72
2018-10-03T01:04:04.962Z,74.46
2018-10-03T01:06:34.467Z,74.39
2018-10-03T01:09:04.210Z,73.30
2018-10-03T01:11:33.576Z,74.68
2018-10-03T01:14:02.977Z,73.95
2018-10-03T01:16:32.586Z,74.40
2018-10-03T01:19:02.091Z,74.43
2018-10-03T01:21:31.598Z,74.58
2018-10-03T01:24:00.995Z,74.10
2018-10-03T01:26:30.397Z,74.40
2018-10-03T01:28:59.901Z,74.53
2018-10-03T01:31:29.405Z,73.73
2018-10-03T01:33:58.807Z,73.72
2018-10-03T01:36:28.207Z,73.91
2018-10-03T01:38:57.506Z,73.91
2018-10-03T01:41:26.912Z,73.89
2018-10-03T01:43:56.207Z,73.39
2018-10-03T01:46:25.508Z,73.85
2018-10-03T01:48:54.807Z,74.17
2018-10-03T01:51:24.209Z,73.64
2018-10-03T01:53:53.693Z,74.21
2018-10-03T01:56:23.220Z,74.63
2018-10-03T01:58:52.632Z,73.77
2018-10-03T02:01:22.022Z,73.59
2018-10-03T02:03:51.347Z,72.93
2018-10-03T02:06:20.830Z,73.69
2018-10-03T02:08:50.226Z,72.52
2018-10-03T02:11:19.731Z,73.40
2018-10-03T02:13:49.133Z,73.19
2018-10-03T02:16:18.637Z,72.99
2018-10-03T02:18:48.038Z,72.92
2018-10-03T02:21:17.347Z,72.23
2018-10-03T02:23:46.741Z,71.72
2018-10-03T02:26:16.239Z,72.51
2018-10-03T02:28:45.953Z,72.01
2018-10-03T02:31:15.355Z,72.01
2018-10-03T02:33:44.707Z,71.67
2018-10-03T02:36:14.052Z,71.46
2018-10-03T02:38:43.354Z,72.31
2018-10-03T02:41:12.759Z,70.98
2018-10-03T02:43:42.054Z,70.86
2018-10-03T02:46:11.456Z,70.82
2018-10-03T02:48:40.862Z,70.08
2018-10-03T02:51:10.309Z,68.27
2018-10-03T02:53:39.671Z,67.60
2018-10-03T02:56:09.269Z,66.96
2018-10-03T02:58:38.574Z,66.72
2018-10-03T03:01:07.972Z,65.73
2018-10-03T03:03:37.271Z,65.72
2018-10-03T03:06:06.978Z,64.87
2018-10-03T03:08:36.532Z,63.54
2018-10-03T03:11:06.151Z,64.01
2018-10-03T03:13:35.595Z,64.05
2018-10-03T03:16:05.099Z,64.56
2018-10-03T03:18:34.501Z,64.93
2018-10-03T03:21:04.010Z,64.68
2018-10-03T03:23:33.514Z,64.47
2018-10-03T03:26:03.013Z,63.75
2018-10-03T03:28:32.469Z,63.88
2018-10-03T03:31:01.817Z,64.11
2018-10-03T03:33:31.524Z,64.88
2018-10-03T03:36:00.927Z,64.09
2018-10-03T03:38:30.331Z,64.30
2018-10-03T03:40:59.732Z,64.46
2018-10-03T03:43:29.235Z,64.90
2018-10-03T03:45:58.739Z,64.83
2018-10-03T03:48:28.138Z,64.57
2018-10-03T03:50:57.544Z,63.88
2018-10-03T03:53:27.074Z,64.79
2018-10-03T03:55:56.658Z,64.62
2018-10-03T03:58:26.059Z,63.44
2018-10-03T04:00:55.458Z,63.69
2018-10-03T04:03:24.788Z,64.29
2018-10-03T04:05:54.158Z,63.66
2018-10-03T04:08:23.559Z,63.60
2018-10-03T04:10:52.962Z,63.26
2018-10-03T04:13:22.262Z,63.18
2018-10-03T04:15:51.724Z,63.15
2018-10-03T04:18:21.167Z,62.64
2018-10-03T04:20:50.577Z,63.86
2018-10-03T04:23:19.970Z,64.39
2018-10-03T04:25:49.373Z,63.67
2018-10-03T04:28:18.772Z,63.34
2018-10-03T04:30:48.074Z,63.74
2018-10-03T04:33:17.606Z,63.92
2018-10-03T04:35:47.014Z,63.14
2018-10-03T04:38:16.487Z,62.53
2018-10-03T04:40:46.048Z,63.41
2018-10-03T04:43:15.389Z,63.06
2018-10-03T04:45:44.803Z,63.48
2018-10-03T04:48:14.295Z,63.53
2018-10-03T04:50:43.697Z,63.34
2018-10-03T04:53:12.997Z,64.04
2018-10-03T04:55:42.398Z,64.04
2018-10-03T04:58:11.803Z,64.14
2018-10-03T05:00:41.306Z,64.35
2018-10-03T05:03:10.911Z,64.56
2018-10-03T05:05:40.313Z,64.28
2018-10-03T05:08:10.181Z,64.06
2018-10-03T05:10:39.628Z,64.10
2018-10-03T05:13:08.944Z,64.41
2018-10-03T05:15:38.433Z,64.84
2018-10-03T05:18:08.141Z,64.38
2018-10-03T05:20:37.545Z,64.76
2018-10-03T05:23:06.842Z,64.31
2018-10-03T05:25:36.449Z,64.61
2018-10-03T05:28:05.898Z,64.58
2018-10-03T05:30:35.355Z,64.35
2018-10-03T05:33:04.872Z,64.35
2018-10-03T05:35:34.363Z,64.13
2018-10-03T05:38:03.765Z,64.58
2018-10-03T05:40:33.164Z,64.21
2018-10-03T05:43:02.772Z,64.05
2018-10-03T05:45:32.278Z,63.77
2018-10-03T05:48:01.826Z,63.86
2018-10-03T05:50:31.187Z,63.74
2018-10-03T05:53:00.491Z,64.18
2018-10-03T05:55:29.783Z,63.58
2018-10-03T05:57:59.289Z,63.92
2018-10-03T06:00:28.753Z,63.50
2018-10-03T06:02:58.136Z,64.11
2018-10-03T06:05:27.503Z,63.63
2018-10-03T06:07:56.894Z,63.16
2018-10-03T06:10:26.399Z,62.40
2018-10-03T06:12:55.802Z,62.72
2018-10-03T06:15:25.208Z,62.52
2018-10-03T06:17:54.703Z,62.82
2018-10-03T06:20:24.106Z,63.09
2018-10-03T06:22:53.700Z,62.60
2018-10-03T06:25:23.320Z,62.59
2018-10-03T06:27:52.686Z,63.07
2018-10-03T06:30:22.124Z,62.74
2018-10-03T06:32:51.628Z,62.11
2018-10-03T06:35:20.925Z,62.93
2018-10-03T06:37:50.330Z,62.90
2018-10-03T06:40:19.584Z,62.90
2018-10-03T06:42:49.031Z,62.82
2018-10-03T06:45:18.534Z,62.40
2018-10-03T06:47:47.978Z,62.51
2018-10-03T06:50:17.619Z,62.24
2018-10-03T06:52:46.930Z,62.71
2018-10-03T06:55:16.218Z,62.04
2018-10-03T06:57:45.621Z,62.71
2018-10-03T07:00:14.957Z,63.11
2018-10-03T07:02:44.497Z,63.70
2018-10-03T07:05:13.763Z,62.82
2018-10-03T07:07:43.230Z,62.25
2018-10-03T07:10:12.632Z,62.23
2018-10-03T07:12:41.932Z,62.32
2018-10-03T07:15:11.331Z,61.58
2018-10-03T07:17:40.631Z,61.89
2018-10-03T07:20:10.039Z,61.83
2018-10-03T07:22:39.330Z,62.17
2018-10-03T07:25:08.839Z,62.03
2018-10-03T07:27:38.991Z,62.02
2018-10-03T07:30:08.582Z,62.11
2018-10-03T07:32:38.376Z,62.95
2018-10-03T07:35:07.877Z,62.21
2018-10-03T07:37:38.494Z,62.21
2018-10-03T07:40:09.447Z,62.23
2018-10-03T07:42:38.775Z,61.48
2018-10-03T07:45:08.554Z,62.09
2018-10-03T07:47:38.060Z,62.37
2018-10-03T07:50:08.995Z,61.87
2018-10-03T07:52:38.397Z,62.37
2018-10-03T07:55:07.799Z,62.36
2018-10-03T07:57:37.225Z,62.26
2018-10-03T08:00:07.910Z,61.58
2018-10-03T08:02:37.440Z,61.51
2018-10-03T08:05:07.046Z,61.91
2018-10-03T08:07:36.346Z,61.57
2018-10-03T08:10:05.808Z,61.05
2018-10-03T08:12:35.092Z,61.93
2018-10-03T08:15:04.653Z,61.29
2018-10-03T08:17:34.055Z,61.44
2018-10-03T08:20:03.560Z,61.79
2018-10-03T08:22:32.959Z,60.57
2018-10-03T08:25:02.445Z,60.45
2018-10-03T08:27:32.964Z,61.20
2018-10-03T08:30:02.437Z,60.92
2018-10-03T08:32:31.983Z,60.46
2018-10-03T08:35:01.301Z,60.44
2018-10-03T08:37:31.011Z,59.56
2018-10-03T08:40:00.678Z,60.19
2018-10-03T08:42:30.019Z,60.22
2018-10-03T08:44:59.425Z,59.15
2018-10-03T08:47:28.825Z,58.80
2018-10-03T08:49:58.225Z,58.31
2018-10-03T08:52:27.624Z,59.27
2018-10-03T08:54:57.028Z,57.58
2018-10-03T08:57:26.532Z,58.23
2018-10-03T08:59:55.938Z,57.63
2018-10-03T09:02:25.336Z,58.62
2018-10-03T09:04:55.184Z,58.85
2018-10-03T09:07:24.651Z,58.24
2018-10-03T09:09:54.053Z,58.09
2018-10-03T09:12:23.455Z,57.28
2018-10-03T09:14:53.066Z,57.85
2018-10-03T09:17:22.365Z,55.52
2018-10-03T09:19:51.765Z,56.30
2018-10-03T09:22:21.369Z,57.27
2018-10-03T09:24:51.087Z,56.13
2018-10-03T09:27:20.540Z,56.20
2018-10-03T09:29:49.986Z,54.76
2018-10-03T09:32:19.592Z,55.58
2018-10-03T09:34:48.995Z,55.89
2018-10-03T09:37:18.599Z,56.08
2018-10-03T09:39:47.998Z,55.69
2018-10-03T09:42:17.607Z,53.91
2018-10-03T09:44:47.011Z,53.50
2018-10-03T09:47:16.742Z,54.25
2018-10-03T09:49:46.222Z,54.35
2018-10-03T09:52:16.499Z,52.35
2018-10-03T09:54:46.043Z,53.13
2018-10-03T09:57:15.560Z,53.14
2018-10-03T09:59:44.955Z,52.50
2018-10-03T10:02:14.253Z,51.12
2018-10-03T10:04:43.676Z,51.65
2018-10-03T10:07:13.085Z,52.06
2018-10-03T10:09:42.459Z,52.15
2018-10-03T10:12:11.964Z,52.77
2018-10-03T10:14:41.366Z,51.38
2018-10-03T10:17:11.076Z,51.57
2018-10-03T10:19:40.789Z,51.64
2018-10-03T10:22:10.395Z,51.75
2018-10-03T10:24:39.811Z,51.81
2018-10-03T10:27:09.398Z,52.04
2018-10-03T10:29:38.697Z,51.42
2018-10-03T10:32:08.119Z,51.43
2018-10-03T10:34:37.603Z,50.58
2018-10-03T10:37:08.242Z,50.26
2018-10-03T10:39:37.640Z,50.00
2018-10-03T10:42:07.038Z,50.32
2018-10-03T10:44:36.544Z,50.45
2018-10-03T10:47:06.251Z,50.04
2018-10-03T10:49:37.705Z,49.58
2018-10-03T10:52:07.208Z,49.23
2018-10-03T10:54:36.709Z,50.37
2018-10-03T10:57:06.115Z,46.79
2018-10-03T10:59:35.516Z,46.92
2018-10-03T11:02:07.169Z,46.90
2018-10-03T11:04:36.672Z,47.90
2018-10-03T11:07:06.077Z,47.91
2018-10-03T11:09:35.582Z,48.15
2018-10-03T11:12:05.082Z,48.16
2018-10-03T11:14:34.484Z,45.94
2018-10-03T11:17:04.115Z,46.27
2018-10-03T11:19:33.492Z,45.41
2018-10-03T11:22:03.099Z,45.57
2018-10-03T11:24:32.737Z,47.00
2018-10-03T11:27:02.108Z,46.92
2018-10-03T11:29:31.510Z,46.68
2018-10-03T11:32:01.104Z,46.33
2018-10-03T11:34:30.722Z,45.43
2018-10-03T11:37:00.228Z,45.88
2018-10-03T11:39:29.629Z,46.28
2018-10-03T11:42:00.399Z,46.08
2018-10-03T11:44:29.916Z,46.35
2018-10-03T11:46:59.575Z,46.43
2018-10-03T11:49:28.848Z,47.23
2018-10-03T11:51:58.379Z,46.87
2018-10-03T11:54:27.885Z,46.56
2018-10-03T11:56:57.391Z,47.26
2018-10-03T11:59:27.051Z,46.83
2018-10-03T12:01:56.908Z,45.50
2018-10-03T12:04:26.720Z,46.47
2018-10-03T12:06:56.171Z,44.14
2018-10-03T12:09:25.731Z,43.19
2018-10-03T12:11:55.334Z,42.99
2018-10-03T12:14:25.018Z,41.78
2018-10-03T12:16:54.648Z,41.71
2018-10-03T12:19:24.119Z,41.06
2018-10-03T12:21:53.768Z,41.76
2018-10-03T12:24:23.247Z,40.78
2018-10-03T12:26:52.771Z,40.52
2018-10-03T12:29:22.401Z,40.27
2018-10-03T12:31:51.884Z,40.34
2018-10-03T12:34:21.489Z,40.68
2018-10-03T12:36:51.095Z,41.51
2018-10-03T12:39:20.497Z,40.62
2018-10-03T12:41:50.203Z,40.36
2018-10-03T12:44:19.913Z,40.86
2018-10-03T12:46:49.519Z,39.83
2018-10-03T12:49:19.841Z,39.88
2018-10-03T12:51:49.751Z,39.90
2018-10-03T12:54:19.213Z,40.74
2018-10-03T12:56:48.867Z,39.11
2018-10-03T12:59:18.588Z,40.17
2018-10-03T13:01:48.200Z,40.50
2018-10-03T13:04:17.792Z,40.01
2018-10-03T13:06:47.299Z,40.09
2018-10-03T13:09:16.904Z,40.31
2018-10-03T13:11:46.613Z,40.63
2018-10-03T13:14:16.218Z,40.82
2018-10-03T13:16:48.997Z,40.73
2018-10-03T13:19:19.123Z,40.20
2018-10-03T13:21:48.722Z,39.04
2018-10-03T13:24:18.233Z,39.68
2018-10-03T13:26:47.823Z,40.00
2018-10-03T13:29:17.545Z,40.31
2018-10-03T13:31:47.151Z,40.23
2018-10-03T13:34:16.496Z,39.85
2018-10-03T13:36:46.012Z,39.27
2018-10-03T13:39:15.459Z,38.95
2018-10-03T13:41:44.945Z,40.06
2018-10-03T13:44:14.366Z,38.98
2018-10-03T13:46:43.709Z,38.35
2018-10-03T13:49:13.171Z,38.80
2018-10-03T13:51:42.568Z,39.59
2018-10-03T13:54:13.270Z,40.28
2018-10-03T13:56:42.704Z,40.09
2018-10-03T13:59:12.106Z,38.64
2018-10-03T14:01:41.671Z,38.32
2018-10-03T14:04:11.115Z,38.32
2018-10-03T14:06:40.619Z,38.87
2018-10-03T14:09:11.119Z,38.58
2018-10-03T14:11:40.857Z,37.38
2018-10-03T14:14:10.360Z,38.34
2018-10-03T14:16:40.181Z,39.67
2018-10-03T14:19:09.512Z,39.15
2018-10-03T14:21:39.180Z,38.84
2018-10-03T14:24:08.692Z,38.69
2018-10-03T14:26:38.091Z,38.55
2018-10-03T14:29:07.798Z,39.92
2018-10-03T14:31:37.198Z,39.46
2018-10-03T14:34:06.701Z,39.18
2018-10-03T14:36:36.103Z,39.34
2018-10-03T14:39:07.317Z,39.62
2018-10-03T14:41:36.805Z,39.60
2018-10-03T14:44:06.462Z,40.37
2018-10-03T14:46:35.901Z,39.97
2018-10-03T14:49:05.498Z,39.30
2018-10-03T14:51:34.869Z,39.11
2018-10-03T14:54:04.481Z,39.69
2018-10-03T14:56:33.753Z,40.71
2018-10-03T14:59:03.267Z,40.29
2018-10-03T15:01:32.937Z,40.87
2018-10-03T15:04:02.596Z,40.97
2018-10-03T15:06:32.024Z,40.77
2018-10-03T15:09:01.501Z,40.95
2018-10-03T15:11:30.909Z,41.63
2018-10-03T15:14:00.406Z,41.13
2018-10-03T15:16:30.014Z,41.15
2018-10-03T15:18:59.621Z,40.37
2018-10-03T15:21:30.266Z,40.81
2018-10-03T15:23:59.756Z,40.52
2018-10-03T15:26:29.218Z,40.54
2018-10-03T15:28:58.766Z,40.62
2018-10-03T15:31:28.165Z,40.40
2018-10-03T15:33:57.842Z,41.41
2018-10-03T15:36:27.482Z,41.50
2018-10-03T15:38:57.294Z,41.39
2018-10-03T15:41:26.799Z,41.57
2018-10-03T15:43:56.410Z,42.16
2018-10-03T15:46:26.117Z,41.77
2018-10-03T15:48:56.645Z,41.93
2018-10-03T15:51:26.263Z,41.62
2018-10-03T15:53:55.858Z,41.79
2018-10-03T15:56:25.464Z,41.72
2018-10-03T15:58:55.069Z,41.70
2018-10-03T16:01:25.624Z,41.97
2018-10-03T16:03:55.424Z,41.64
2018-10-03T16:06:25.270Z,41.06
2018-10-03T16:08:54.827Z,42.21
2018-10-03T16:11:24.330Z,41.49
2018-10-03T16:13:54.262Z,41.67
2018-10-03T16:16:23.749Z,41.63
2018-10-03T16:18:53.229Z,42.34
2018-10-03T16:21:22.654Z,42.60
2018-10-03T16:23:51.956Z,42.52
2018-10-03T16:26:21.404Z,42.77
2018-10-03T16:28:50.860Z,43.10
2018-10-03T16:31:20.367Z,43.19
2018-10-03T16:33:49.971Z,43.22
2018-10-03T16:36:19.579Z,43.28
2018-10-03T16:38:49.232Z,44.90
2018-10-03T16:41:19.410Z,43.87
2018-10-03T16:43:48.890Z,43.91
2018-10-03T16:46:18.374Z,44.14
2018-10-03T16:48:48.741Z,44.02
2018-10-03T16:51:18.503Z,44.18
2018-10-03T16:53:47.903Z,45.03
2018-10-03T16:56:17.423Z,44.80
2018-10-03T16:58:47.983Z,44.86
2018-10-03T17:01:17.501Z,44.22
2018-10-03T17:03:46.992Z,45.09
2018-10-03T17:06:16.563Z,46.02
2018-10-03T17:08:46.410Z,45.64
2018-10-03T17:11:15.915Z,46.88
2018-10-03T17:13:56.786Z,47.01
2018-10-03T17:16:26.391Z,47.59
2018-10-03T17:18:56.202Z,48.57
2018-10-03T17:21:25.653Z,48.87
2018-10-03T17:23:55.109Z,48.99
2018-10-03T17:26:24.685Z,49.34
2018-10-03T17:28:54.343Z,49.66
2018-10-03T17:31:23.929Z,49.88
2018-10-03T17:33:53.509Z,49.83
2018-10-03T17:36:23.040Z,50.42
2018-10-03T17:38:52.544Z,50.44
2018-10-03T17:41:22.663Z,50.67
2018-10-03T17:43:53.191Z,50.62
2018-10-03T17:46:22.800Z,50.44
2018-10-03T17:48:52.563Z,50.25
2018-10-03T17:51:21.916Z,50.05
2018-10-03T17:53:51.618Z,50.92
2018-10-03T17:56:21.328Z,50.61
2018-10-03T17:58:50.832Z,51.09
2018-10-03T18:01:20.338Z,50.45
2018-10-03T18:03:50.250Z,50.51
2018-10-03T18:06:20.267Z,50.81
2018-10-03T18:08:50.359Z,50.52
2018-10-03T18:11:20.474Z,50.76
2018-10-03T18:13:50.523Z,50.96
2018-10-03T18:16:20.127Z,51.30
2018-10-03T18:18:49.571Z,51.96
2018-10-03T18:21:19.338Z,51.43
2018-10-03T18:23:48.824Z,52.31
2018-10-03T18:26:18.348Z,52.23
2018-10-03T18:28:47.933Z,52.00
2018-10-03T18:31:17.677Z,52.32
2018-10-03T18:33:47.191Z,52.49
2018-10-03T18:36:16.676Z,52.30
2018-10-03T18:38:46.095Z,52.02
2018-10-03T18:41:15.607Z,51.67
2018-10-03T18:43:44.986Z,52.15
2018-10-03T18:46:14.793Z,52.69
2018-10-03T18:48:45.527Z,53.20
2018-10-03T18:51:16.157Z,53.13
2018-10-03T18:53:45.867Z,53.71
2018-10-03T18:56:16.600Z,54.26
2018-10-03T18:58:46.705Z,54.23
2018-10-03T19:01:16.331Z,54.27
2018-10-03T19:03:46.344Z,54.08
2018-10-03T19:06:16.391Z,53.79
2018-10-03T19:08:46.391Z,53.93
2018-10-03T19:11:19.155Z,54.69
2018-10-03T19:13:49.017Z,54.60
2018-10-03T19:16:19.259Z,54.26
2018-10-03T19:18:49.315Z,54.35
2018-10-03T19:21:19.980Z,54.68
2018-10-03T19:23:50.182Z,53.10
2018-10-03T19:26:20.203Z,53.40
2018-10-03T19:28:49.677Z,53.91
2018-10-03T19:31:19.385Z,53.59
2018-10-03T19:33:49.183Z,53.99
2018-10-03T19:36:19.258Z,54.07
2018-10-03T19:38:48.921Z,53.75
2018-10-03T19:41:18.630Z,53.86
2018-10-03T19:43:48.441Z,53.96
2018-10-03T19:46:18.049Z,53.90
2018-10-03T19:48:49.509Z,53.33
2018-10-03T19:51:19.259Z,52.48
2018-10-03T19:53:48.915Z,53.23
2018-10-03T19:56:18.521Z,53.44
2018-10-03T19:58:48.280Z,53.54
2018-10-03T20:01:17.642Z,52.68
2018-10-03T20:03:47.398Z,53.42
2018-10-03T20:06:16.806Z,53.96
2018-10-03T20:08:46.453Z,54.11
2018-10-03T20:11:17.493Z,53.86
2018-10-03T20:13:47.415Z,53.39
2018-10-03T20:16:17.118Z,53.80
2018-10-03T20:18:46.826Z,53.94
2018-10-03T20:21:16.537Z,54.05
2018-10-03T20:23:46.308Z,53.88
2018-10-03T20:26:15.762Z,54.49
2018-10-03T20:28:45.562Z,54.97
2018-10-03T20:31:15.267Z,55.39
2018-10-03T20:33:44.766Z,54.67
2018-10-03T20:36:14.276Z,55.34
2018-10-03T20:38:44.692Z,55.82
2018-10-03T20:41:14.637Z,56.03
2018-10-03T20:43:47.133Z,56.05
2018-10-03T20:46:17.120Z,56.48
2018-10-03T20:48:46.824Z,56.91
2018-10-03T20:51:16.632Z,56.29
2018-10-03T20:53:46.094Z,56.06
2018-10-03T20:56:15.720Z,56.30
2018-10-03T20:58:45.142Z,56.18
2018-10-03T21:01:14.644Z,55.85
2018-10-03T21:03:44.457Z,55.47
2018-10-03T21:06:13.864Z,55.36
2018-10-03T21:08:43.477Z,55.74
2018-10-03T21:11:12.969Z,55.45
2018-10-03T21:13:42.940Z,55.46
2018-10-03T21:16:12.472Z,55.14
2018-10-03T21:18:41.987Z,55.35
2018-10-03T21:21:12.521Z,55.13
2018-10-03T21:23:42.025Z,55.46
2018-10-03T21:26:11.350Z,55.13
2018-10-03T21:28:41.137Z,55.36
2018-10-03T21:31:10.745Z,55.43
2018-10-03T21:33:40.049Z,55.68
2018-10-03T21:36:09.651Z,55.21
2018-10-03T21:38:39.049Z,54.97
2018-10-03T21:41:08.554Z,55.01
2018-10-03T21:43:38.132Z,54.78
2018-10-03T21:46:07.974Z,55.50
2018-10-03T21:48:37.476Z,55.27
2018-10-03T21:51:08.269Z,55.57
2018-10-03T21:53:37.920Z,56.12
2018-10-03T21:56:07.490Z,55.81
2018-10-03T21:58:37.236Z,56.15
2018-10-03T22:01:07.304Z,56.47
2018-10-03T22:03:37.063Z,56.60
2018-10-03T22:06:06.466Z,56.61
2018-10-03T22:08:36.078Z,57.11
2018-10-03T22:11:05.490Z,56.39
2018-10-03T22:13:34.983Z,55.85
2018-10-03T22:16:04.484Z,56.64
2018-10-03T22:18:36.349Z,57.17
2018-10-03T22:21:05.747Z,57.80
2018-10-03T22:23:35.247Z,57.72
2018-10-03T22:26:04.955Z,58.11
2018-10-03T22:28:34.873Z,58.38
2018-10-03T22:31:05.503Z,59.12
2018-10-03T22:33:37.003Z,59.77
2018-10-03T22:36:06.662Z,59.32
2018-10-03T22:38:38.055Z,59.83
2018-10-03T22:41:07.616Z,59.90
2018-10-03T22:43:37.833Z,60.14
2018-10-03T22:46:07.801Z,60.58
2018-10-03T22:48:37.558Z,60.92
2018-10-03T22:51:07.208Z,60.60
2018-10-03T22:53:37.794Z,60.57
2018-10-03T22:56:07.551Z,60.28
2018-10-03T22:58:37.012Z,60.60
2018-10-03T23:01:06.820Z,60.56
2018-10-03T23:03:36.632Z,62.49
2018-10-03T23:06:06.088Z,63.11
2018-10-03T23:08:35.640Z,62.70
2018-10-03T23:11:05.108Z,62.33
2018-10-03T23:13:34.623Z,62.13
2018-10-03T23:16:03.988Z,61.75
2018-10-03T23:18:33.452Z,61.36
2018-10-03T23:21:02.711Z,61.25
2018-10-03T23:23:31.916Z,61.63
2018-10-03T23:26:01.188Z,61.72
2018-10-03T23:28:30.544Z,61.58
2018-10-03T23:31:00.151Z,61.59
2018-10-03T23:33:29.343Z,61.36
2018-10-03T23:35:58.839Z,61.57
2018-10-03T23:38:28.156Z,62.16
2018-10-03T23:40:57.566Z,62.41
2018-10-03T23:43:26.958Z,62.98
2018-10-03T23:45:56.499Z,63.00
2018-10-03T23:48:25.863Z,62.27
2018-10-03T23:50:55.368Z,62.42
2018-10-03T23:53:24.872Z,62.45
2018-10-03T23:55:54.273Z,62.17
2018-10-03T23:58:23.675Z,62.59
